createdAt,value
2018-08-19T00:01:48.671Z,28.3
2018-08-19T00:11:47.913Z,28.3
2018-08-19T00:21:47.185Z,28.3
2018-08-19T00:31:46.402Z,28.3
2018-08-19T00:41:45.644Z,28.3
2018-08-19T00:51:44.889Z,28.3
2018-08-19T01:01:44.134Z,28.3
2018-08-19T01:11:43.381Z,28.3
2018-08-19T01:21:42.619Z,28.3
2018-08-19T01:31:41.866Z,28.2
2018-08-19T01:41:41.105Z,28.3
2018-08-19T01:51:40.348Z,28.2
2018-08-19T02:01:39.592Z,28.3
2018-08-19T02:11:38.839Z,28.2
2018-08-19T02:21:38.077Z,28.2
2018-08-19T02:31:37.324Z,28.2
2018-08-19T02:41:36.570Z,28.2
2018-08-19T02:51:35.805Z,28.2
2018-08-19T03:01:35.052Z,28.2
2018-08-19T03:11:34.300Z,28.2
2018-08-19T03:21:33.532Z,28.2
2018-08-19T03:31:32.778Z,28.2
2018-08-19T03:41:32.018Z,28.1
2018-08-19T03:51:31.262Z,28.2
2018-08-19T04:01:30.500Z,28.1
2018-08-19T04:11:29.744Z,28.1
2018-08-19T04:21:28.985Z,28.1
2018-08-19T04:31:28.233Z,28.1
2018-08-19T04:41:27.470Z,28.1
2018-08-19T04:51:26.720Z,28.2
2018-08-19T05:01:25.953Z,28.1
2018-08-19T05:11:25.196Z,28.1
2018-08-19T05:21:24.437Z,28.1
2018-08-19T05:31:23.738Z,28
2018-08-19T05:41:22.926Z,28
2018-08-19T05:51:22.166Z,27.9
2018-08-19T06:01:21.411Z,27.9
2018-08-19T06:11:20.652Z,27.9
2018-08-19T06:21:19.895Z,27.8
2018-08-19T06:31:19.138Z,27.8
2018-08-19T06:41:18.381Z,27.6
2018-08-19T06:51:17.714Z,27.7
2018-08-19T07:01:16.869Z,27.7
2018-08-19T07:11:16.115Z,27.8
2018-08-19T07:21:15.361Z,27.8
2018-08-19T07:31:14.613Z,27.8
2018-08-19T07:41:13.857Z,27.8
2018-08-19T07:51:13.106Z,27.9
2018-08-19T08:01:12.342Z,27.9
2018-08-19T08:11:11.588Z,27.9
2018-08-19T08:21:10.859Z,27.9
2018-08-19T08:31:10.076Z,27.9
2018-08-19T08:41:09.321Z,27.9
2018-08-19T08:51:08.568Z,27.9
2018-08-19T09:01:07.813Z,27.9
2018-08-19T09:11:07.055Z,27.9
2018-08-19T09:21:06.300Z,27.9
2018-08-19T09:31:05.544Z,27.9
2018-08-19T09:41:04.789Z,27.9
2018-08-19T09:51:04.033Z,27.9
2018-08-19T10:01:03.277Z,27.9
2018-08-19T10:11:02.530Z,28
2018-08-19T10:21:01.770Z,28
2018-08-19T10:31:01.019Z,28
2018-08-19T10:41:00.306Z,28
2018-08-19T10:50:59.559Z,28.1
2018-08-19T11:00:58.745Z,28.1
2018-08-19T11:10:57.988Z,28
2018-08-19T11:20:57.239Z,28
2018-08-19T11:30:56.483Z,28
2018-08-19T11:40:55.725Z,28
2018-08-19T11:50:54.964Z,28
2018-08-19T12:00:54.215Z,28
2018-08-19T12:10:53.455Z,28.1
2018-08-19T12:20:52.699Z,28.1
2018-08-19T12:30:51.939Z,28.1
2018-08-19T12:40:51.184Z,28.1
2018-08-19T12:50:50.432Z,28.1
2018-08-19T13:00:49.671Z,28.1
2018-08-19T13:10:48.915Z,28.1
2018-08-19T13:20:48.159Z,28.1
2018-08-19T13:30:47.404Z,28.1
2018-08-19T13:40:46.650Z,28.2
2018-08-19T13:50:45.895Z,28.2
2018-08-19T14:00:45.143Z,28.2
2018-08-19T14:10:44.385Z,28.2
2018-08-19T14:20:43.634Z,28.3
2018-08-19T14:30:42.881Z,28.3
2018-08-19T14:40:42.123Z,28.3
2018-08-19T14:50:41.374Z,28.3
2018-08-19T15:00:40.618Z,28.3
2018-08-19T15:10:39.862Z,28.3
2018-08-19T15:20:39.159Z,28.3
2018-08-19T15:30:38.359Z,28.3
2018-08-19T15:40:37.601Z,28.4
2018-08-19T15:50:36.848Z,28.4
2018-08-19T16:00:36.099Z,28.4
2018-08-19T16:10:35.343Z,28.3
2018-08-19T16:20:34.585Z,28.2
2018-08-19T16:30:33.830Z,28.2
2018-08-19T16:40:33.076Z,28.1
2018-08-19T16:50:32.472Z,28.1
2018-08-19T17:00:31.567Z,28.1
2018-08-19T17:10:30.820Z,28.1
2018-08-19T17:20:30.065Z,28.1
2018-08-19T17:30:29.359Z,28.1
2018-08-19T17:40:28.548Z,28.1
2018-08-19T17:50:27.793Z,28.1
2018-08-19T18:00:27.036Z,28.1
2018-08-19T18:10:26.282Z,28
2018-08-19T18:20:25.526Z,27.9
2018-08-19T18:30:24.770Z,27.9
2018-08-19T18:40:24.019Z,27.9
2018-08-19T18:50:23.260Z,28
2018-08-19T19:00:22.507Z,28
2018-08-19T19:10:21.747Z,28.1
2018-08-19T19:20:20.996Z,28.1
2018-08-19T19:30:20.235Z,28.1
2018-08-19T19:40:19.479Z,28.1
2018-08-19T19:50:18.724Z,28.1
2018-08-19T20:00:17.969Z,28.1
2018-08-19T20:10:17.212Z,28.1
2018-08-19T20:20:16.455Z,28.2
2018-08-19T20:30:15.702Z,28.2
2018-08-19T20:40:14.994Z,28.2
2018-08-19T20:50:14.317Z,28.2
2018-08-19T21:00:13.437Z,28.2
2018-08-19T21:10:12.681Z,28.2
2018-08-19T21:20:11.926Z,28.2
2018-08-19T21:30:11.272Z,28.2
2018-08-19T21:40:10.404Z,28.2
2018-08-19T21:50:09.644Z,28.2
2018-08-19T22:00:08.891Z,28.2
2018-08-19T22:10:08.135Z,28.2
2018-08-19T22:20:07.379Z,28.3
2018-08-19T22:30:06.619Z,28.3
2018-08-19T22:40:05.881Z,28.3
2018-08-19T22:50:05.102Z,28.3
2018-08-19T23:00:04.347Z,28.3
2018-08-19T23:10:03.591Z,28.3
2018-08-19T23:20:02.834Z,28.3
2018-08-19T23:30:02.079Z,28.3
2018-08-19T23:40:01.320Z,28.3
2018-08-19T23:50:00.560Z,28.3
2018-08-19T23:59:59.807Z,28.3
